Time;durP1;ratioP1;P1;durP2;ratioP2;P2;SDS_P1;SDS_P2;PMS_P1;PMS_P2;Temp;Humidity;BMP_temperature;BMP_pressure;BME280_temperature;BME280_humidity;BME280_pressure;Samples;Min_cycle;Max_cycle;Signal;HPM_P1;HPM_P2
2024/01/24 06:55:50;;;;;;;1.57;0.93;;;;;;;13.03;91.97;101039.53;5014248;23;20242;-65
2024/01/24 06:58:18;;;;;;;0.43;0.13;;;;;;;13.04;92.45;101049.19;4903924;29;20834;-65
2024/01/24 07:00:46;;;;;;;1.00;0.10;;;;;;;13.05;93.04;101058.03;4902818;29;20212;-63
2024/01/24 07:03:15;;;;;;;0.10;0.10;;;;;;;13.08;93.54;101061.22;4901134;29;20219;-63
2024/01/24 07:05:47;;;;;;;1.13;0.60;;;;;;;13.12;93.22;101067.91;4901641;29;20210;-63
2024/01/24 07:08:15;;;;;;;0.30;0.20;;;;;;;13.08;94.25;101058.56;4903973;29;21077;-64
2024/01/24 07:10:44;;;;;;;0.87;0.30;;;;;;;13.05;95.08;101072.16;4900074;29;20569;-61
2024/01/24 07:13:14;;;;;;;0.40;0.27;;;;;;;13.04;95.24;101070.50;4903081;29;20693;-65
2024/01/24 07:15:42;;;;;;;1.10;0.63;;;;;;;13.10;95.03;101077.91;4919659;29;20666;-64
2024/01/24 07:18:10;;;;;;;0.20;0.10;;;;;;;13.07;95.36;101077.34;4921730;29;20219;-64
2024/01/24 07:20:39;;;;;;;0.57;0.20;;;;;;;13.07;95.52;101083.53;4919696;29;20714;-64
2024/01/24 07:23:07;;;;;;;0.53;0.20;;;;;;;13.10;95.69;101080.56;4920732;29;20232;-62
2024/01/24 07:28:06;;;;;;;0.43;0.10;;;;;;;13.15;96.21;101088.97;4923154;29;20242;-64
2024/01/24 07:30:35;;;;;;;1.70;0.30;;;;;;;13.10;97.84;101093.88;4933141;29;20296;-62
2024/01/24 07:33:05;;;;;;;1.73;0.20;;;;;;;13.10;97.77;101091.22;4944116;28;20214;-61
2024/01/24 07:35:33;;;;;;;2.20;0.20;;;;;;;13.14;97.77;101113.06;4943840;28;20229;-64
2024/01/24 07:38:01;;;;;;;0.53;0.30;;;;;;;13.13;97.32;101098.91;4945082;29;20221;-62
2024/01/24 07:40:29;;;;;;;0.20;0.20;;;;;;;13.08;98.17;101103.00;4943930;28;20218;-61
2024/01/24 07:42:56;;;;;;;0.43;0.20;;;;;;;13.09;97.24;101102.00;4945461;29;20305;-64
2024/01/24 07:45:26;;;;;;;0.30;0.10;;;;;;;13.11;96.85;101127.47;4943385;28;20217;-63
2024/01/24 07:47:55;;;;;;;0.20;0.20;;;;;;;13.16;96.43;101135.06;4945249;28;20219;-63
2024/01/24 07:50:23;;;;;;;0.87;0.20;;;;;;;13.15;95.88;101122.75;4941666;28;20241;-62
2024/01/24 07:52:51;;;;;;;0.50;0.20;;;;;;;13.19;96.10;101121.47;4944863;28;20238;-62
2024/01/24 07:55:21;;;;;;;2.53;1.00;;;;;;;13.21;95.48;101127.47;4943715;29;20239;-64
2024/01/24 07:58:03;;;;;;;0.70;0.30;;;;;;;13.29;95.01;101137.38;4944211;29;20215;-63
2024/01/24 08:00:31;;;;;;;0.10;0.10;;;;;;;13.28;97.34;101144.50;4943687;28;20218;-63
2024/01/24 08:03:02;;;;;;;0.50;0.30;;;;;;;13.24;100.00;101136.97;4944356;28;20297;-64
2024/01/24 08:05:32;;;;;;;0.50;0.20;;;;;;;13.25;100.00;101139.50;4944799;28;20211;-63
2024/01/24 08:08:01;;;;;;;1.83;0.30;;;;;;;13.22;100.00;101134.47;4944503;28;20225;-62
2024/01/24 08:10:29;;;;;;;1.50;0.33;;;;;;;13.23;100.00;101138.81;4942841;29;20331;-64
2024/01/24 08:12:58;;;;;;;1.33;0.30;;;;;;;13.24;100.00;101148.47;4942941;28;20214;-64
2024/01/24 08:15:26;;;;;;;1.67;0.30;;;;;;;13.22;100.00;101149.59;4940685;28;20234;-64
2024/01/24 08:17:55;;;;;;;1.33;0.30;;;;;;;13.22;100.00;101115.81;4943350;29;20211;-62
2024/01/24 08:20:25;;;;;;;1.10;0.40;;;;;;;13.23;100.00;101137.97;4943427;28;20236;-64
2024/01/24 08:22:53;;;;;;;1.10;0.30;;;;;;;13.15;100.00;101139.56;4942692;28;20336;-63
2024/01/24 08:25:22;;;;;;;0.93;0.33;;;;;;;13.12;100.00;101137.16;4920177;29;20223;-62
2024/01/24 08:27:50;;;;;;;0.90;0.20;;;;;;;13.15;100.00;101149.38;4916755;29;20236;-61
2024/01/24 08:30:21;;;;;;;2.37;0.77;;;;;;;13.17;100.00;101145.59;4917962;29;20309;-64
2024/01/24 08:32:51;;;;;;;0.50;0.30;;;;;;;13.23;100.00;101164.59;4919987;29;20296;-64
2024/01/24 08:35:20;;;;;;;1.00;0.33;;;;;;;13.29;100.00;101164.00;4921166;29;20675;-64
2024/01/24 08:37:50;;;;;;;0.63;0.20;;;;;;;13.31;100.00;101159.38;4920683;29;20600;-63
2024/01/24 08:40:19;;;;;;;0.60;0.10;;;;;;;13.38;100.00;101169.28;4922344;29;20214;-61
2024/01/24 08:42:46;;;;;;;0.53;0.20;;;;;;;13.44;99.48;101179.34;4920396;29;20222;-62
2024/01/24 08:45:15;;;;;;;0.33;0.20;;;;;;;13.49;97.59;101189.53;4920414;29;20678;-62
2024/01/24 08:47:44;;;;;;;0.40;0.20;;;;;;;13.61;96.25;101187.53;4919863;29;20658;-63
2024/01/24 08:50:12;;;;;;;0.67;0.10;;;;;;;13.70;95.20;101186.63;4923062;29;20231;-63
2024/01/24 08:52:40;;;;;;;0.50;0.17;;;;;;;13.78;94.42;101184.88;4921047;29;20223;-62
2024/01/24 08:55:11;;;;;;;0.10;0.10;;;;;;;13.85;93.88;101185.94;4919745;29;20226;-60
2024/01/24 08:57:39;;;;;;;1.20;0.40;;;;;;;13.96;92.78;101198.22;4925097;29;20275;-63
2024/01/24 09:00:09;;;;;;;2.03;0.20;;;;;;;14.01;92.11;101192.41;4918539;29;20225;-60
2024/01/24 09:02:37;;;;;;;2.03;0.30;;;;;;;14.16;91.42;101186.38;4916971;29;20267;-63
2024/01/24 09:05:08;;;;;;;0.37;0.23;;;;;;;14.32;89.55;101185.69;4922765;29;20268;-61
2024/01/24 09:07:36;;;;;;;0.30;0.20;;;;;;;14.42;88.56;101186.47;4920565;29;20890;-63
2024/01/24 09:10:08;;;;;;;0.30;0.20;;;;;;;14.52;87.34;101200.53;4920201;29;20220;-63
2024/01/24 09:12:38;;;;;;;0.97;0.10;;;;;;;14.75;85.70;101203.53;4922126;29;20217;-62
2024/01/24 09:15:08;;;;;;;1.40;0.30;;;;;;;14.90;83.84;101214.47;4922546;29;20679;-63
2024/01/24 09:17:36;;;;;;;1.80;0.30;;;;;;;15.15;81.92;101200.22;4920854;29;20236;-64
2024/01/24 09:20:06;;;;;;;2.50;0.30;;;;;;;15.32;78.01;101201.97;4921901;29;20226;-63
2024/01/24 09:22:34;;;;;;;0.87;0.20;;;;;;;15.94;75.34;101190.97;4921688;29;20240;-61
2024/01/24 09:25:02;;;;;;;0.97;0.20;;;;;;;16.38;72.13;101192.31;4920635;29;20255;-64
2024/01/24 09:27:35;;;;;;;1.30;0.40;;;;;;;16.23;71.36;101183.31;4923922;29;20224;-60
2024/01/24 09:30:06;;;;;;;2.07;0.40;;;;;;;15.85;71.09;101202.66;4923304;29;20218;-61
2024/01/24 09:32:34;;;;;;;3.83;0.50;;;;;;;15.78;71.68;101181.09;4923431;29;20209;-62
2024/01/24 09:35:03;;;;;;;1.87;0.53;;;;;;;15.70;70.09;101191.78;4920604;29;20208;-63
2024/01/24 09:37:32;;;;;;;6.03;0.73;;;;;;;15.69;67.48;101174.06;4920692;29;20271;-65
2024/01/24 09:40:00;;;;;;;4.47;0.70;;;;;;;15.41;64.61;101193.00;4921024;29;20272;-63
2024/01/24 09:42:29;;;;;;;3.17;0.60;;;;;;;15.26;66.43;101210.66;4919151;29;20264;-64
2024/01/24 09:44:59;;;;;;;2.00;0.50;;;;;;;15.17;66.87;101224.97;4917627;29;20300;-62
2024/01/24 09:47:29;;;;;;;2.83;0.43;;;;;;;15.07;67.82;101216.22;4918790;29;20308;-63
2024/01/24 09:49:59;;;;;;;1.47;0.47;;;;;;;14.97;66.95;101228.84;4918025;29;20219;-63
2024/01/24 09:52:28;;;;;;;3.10;0.70;;;;;;;14.98;65.41;101227.84;4922413;29;20225;-65
2024/01/24 09:55:00;;;;;;;2.17;0.53;;;;;;;14.99;65.03;101225.03;4920899;29;20212;-62
2024/01/24 09:57:29;;;;;;;3.30;0.70;;;;;;;14.97;63.77;101226.19;4921774;29;20306;-63
2024/01/24 09:59:57;;;;;;;3.07;0.60;;;;;;;15.02;63.07;101218.56;4919463;29;20239;-65
2024/01/24 10:02:28;;;;;;;2.23;0.80;;;;;;;15.24;62.88;101223.31;4918665;29;20221;-63
2024/01/24 10:04:59;;;;;;;3.90;0.70;;;;;;;15.49;61.49;101234.94;4919157;29;20208;-63
2024/01/24 10:07:27;;;;;;;3.37;0.87;;;;;;;16.89;57.50;101228.59;4920235;29;20212;-60
2024/01/24 10:10:07;;;;;;;5.60;1.17;;;;;;;17.72;50.60;101233.50;4920378;29;20212;-66
2024/01/24 10:12:36;;;;;;;4.80;1.27;;;;;;;18.13;50.13;101238.63;4919943;29;21045;-63
2024/01/24 10:15:05;;;;;;;4.20;1.20;;;;;;;17.86;48.53;101231.91;4920649;29;20229;-65
2024/01/24 10:17:35;;;;;;;6.43;1.10;;;;;;;17.79;47.10;101237.16;4921877;29;21287;-62
2024/01/24 10:20:06;;;;;;;5.33;1.43;;;;;;;17.54;46.95;101255.19;4921344;29;20337;-64
2024/01/24 10:22:34;;;;;;;9.80;3.50;;;;;;;17.60;47.10;101242.91;4918866;29;20212;-61
2024/01/24 10:25:03;;;;;;;7.33;1.27;;;;;;;17.36;47.20;101261.81;4919634;29;20232;-64
2024/01/24 10:27:33;;;;;;;5.00;1.17;;;;;;;17.41;48.30;101264.81;4920955;29;20852;-63
2024/01/24 10:30:02;;;;;;;3.17;0.97;;;;;;;17.57;48.34;101260.22;4918804;29;20212;-65
2024/01/24 10:32:32;;;;;;;4.30;0.90;;;;;;;17.98;48.02;101271.59;4917809;29;20220;-65
2024/01/24 10:35:04;;;;;;;4.07;0.80;;;;;;;18.98;46.91;101250.00;4917224;29;20216;-64
2024/01/24 10:37:33;;;;;;;3.73;0.80;;;;;;;19.64;45.57;101249.06;4918818;29;20849;-64
2024/01/24 10:40:06;;;;;;;6.83;1.30;;;;;;;20.49;43.27;101268.00;4922474;29;20212;-62
2024/01/24 10:42:37;;;;;;;6.10;0.97;;;;;;;21.64;41.58;101270.25;4919229;29;20212;-65
2024/01/24 10:45:09;;;;;;;7.73;1.50;;;;;;;21.01;40.25;101294.59;4917948;29;21635;-64
2024/01/24 10:47:37;;;;;;;6.20;1.40;;;;;;;20.54;40.74;101294.38;4919766;29;21136;-63
2024/01/24 10:50:09;;;;;;;5.93;1.60;;;;;;;19.97;42.62;101305.13;4918913;29;20225;-63
2024/01/24 10:52:40;;;;;;;5.60;1.30;;;;;;;19.18;43.80;101316.47;4919690;29;20227;-62
2024/01/24 10:55:12;;;;;;;5.90;1.50;;;;;;;18.96;44.92;101317.38;4917221;29;20212;-62
2024/01/24 10:57:42;;;;;;;7.70;1.67;;;;;;;18.75;44.66;101307.31;4920750;29;20946;-63
2024/01/24 11:00:14;;;;;;;11.93;1.70;;;;;;;18.69;45.01;101305.34;4910742;29;20217;-64
2024/01/24 11:02:42;;;;;;;7.23;1.53;;;;;;;18.61;45.82;101318.84;4920330;29;20259;-62
2024/01/24 11:05:20;;;;;;;5.93;1.57;;;;;;;18.50;46.02;101331.81;4918800;29;20466;-65
2024/01/24 11:07:55;;;;;;;5.77;1.77;;;;;;;18.18;47.19;101322.97;4919103;29;20208;-63
2024/01/24 11:10:29;;;;;;;9.50;1.80;;;;;;;17.98;47.37;101327.13;4918713;29;20216;-59
2024/01/24 11:12:56;;;;;;;5.67;1.40;;;;;;;17.60;47.76;101334.94;4918202;29;20251;-64
2024/01/24 11:15:28;;;;;;;10.03;1.50;;;;;;;17.42;48.48;101310.19;4917461;29;20561;-66
2024/01/24 11:18:19;;;;;;;7.30;1.97;;;;;;;17.22;49.29;101330.38;4918588;29;20344;-66
2024/01/24 11:20:51;;;;;;;5.33;1.70;;;;;;;17.04;49.26;101305.63;4918178;29;20527;-64
2024/01/24 11:23:41;;;;;;;6.73;2.13;;;;;;;16.76;49.65;101322.03;4916386;29;20236;-66
2024/01/24 11:26:13;;;;;;;12.07;2.83;;;;;;;16.62;50.14;101312.00;4919701;29;20223;-64
2024/01/24 11:28:42;;;;;;;11.77;2.40;;;;;;;16.86;50.21;101308.47;4917557;29;20197;-64
2024/01/24 11:31:13;;;;;;;7.90;1.70;;;;;;;17.10;49.35;101305.75;4919566;29;20661;-65
2024/01/24 11:34:15;;;;;;;7.23;1.87;;;;;;;17.73;48.23;101296.88;4917663;29;21108;-65
2024/01/24 11:36:49;;;;;;;7.87;1.60;;;;;;;18.00;48.44;101288.38;4918237;29;20240;-64
2024/01/24 11:39:33;;;;;;;7.33;1.70;;;;;;;18.32;47.66;101298.03;4918065;29;20216;-65
2024/01/24 11:42:36;;;;;;;8.17;1.83;;;;;;;18.29;48.01;101302.97;4916530;29;20315;-66
2024/01/24 11:45:16;;;;;;;7.10;1.27;;;;;;;18.00;48.94;101293.72;4919670;29;20346;-65
2024/01/24 11:47:45;;;;;;;6.53;1.70;;;;;;;18.33;48.92;101310.47;4919771;29;20715;-64
2024/01/24 11:50:14;;;;;;;11.13;1.97;;;;;;;18.29;48.43;101311.84;4911373;29;20209;-65
2024/01/24 11:52:47;;;;;;;8.50;1.70;;;;;;;17.76;49.38;101306.44;4918175;29;20223;-63
2024/01/24 11:55:16;;;;;;;8.17;1.77;;;;;;;17.26;50.29;101310.25;4919981;29;20596;-66
2024/01/24 11:57:44;;;;;;;7.03;1.63;;;;;;;16.93;51.99;101321.03;4919636;29;20599;-65
2024/01/24 12:00:15;;;;;;;11.07;1.83;;;;;;;16.58;52.89;101332.03;4917479;29;20267;-65
2024/01/24 12:02:44;;;;;;;11.50;2.00;;;;;;;16.27;53.19;101331.00;4918763;29;20373;-64
2024/01/24 12:05:16;;;;;;;8.23;2.17;;;;;;;16.10;53.19;101343.47;4919881;29;20698;-64
2024/01/24 12:07:46;;;;;;;7.90;1.93;;;;;;;16.11;53.06;101337.13;4920009;29;20805;-65
2024/01/24 12:10:14;;;;;;;10.77;2.27;;;;;;;16.22;52.97;101330.66;4919927;29;20215;-64
2024/01/24 12:12:46;;;;;;;10.00;2.00;;;;;;;16.88;50.96;101358.22;4918191;29;20211;-64
2024/01/24 12:15:18;;;;;;;10.00;2.37;;;;;;;17.56;47.61;101363.13;4918940;29;20205;-65
2024/01/24 12:17:50;;;;;;;11.37;2.80;;;;;;;17.98;46.32;101359.31;4918050;29;20220;-63
2024/01/24 12:20:21;;;;;;;11.50;2.20;;;;;;;17.59;46.40;101354.72;4919347;29;20220;-63
2024/01/24 12:22:52;;;;;;;12.33;2.77;;;;;;;17.43;46.93;101372.69;4919723;29;20216;-65
2024/01/24 12:25:24;;;;;;;10.70;2.90;;;;;;;17.38;45.63;101377.75;4919944;29;20212;-64
2024/01/24 12:27:54;;;;;;;11.80;2.43;;;;;;;17.13;45.90;101385.00;4919882;29;20231;-64
2024/01/24 12:30:22;;;;;;;16.40;3.00;;;;;;;16.82;46.98;101398.22;4920787;29;20931;-64
2024/01/24 12:32:57;;;;;;;13.43;3.13;;;;;;;16.71;47.22;101375.25;4919175;29;20219;-65
2024/01/24 12:35:26;;;;;;;13.90;3.23;;;;;;;16.56;46.99;101392.94;4917124;29;20328;-64
2024/01/24 12:37:59;;;;;;;11.87;3.13;;;;;;;16.54;48.06;101389.59;4920938;29;20318;-64
2024/01/24 12:40:28;;;;;;;16.37;2.73;;;;;;;16.50;47.99;101404.31;4919860;29;20212;-65
2024/01/24 12:42:57;;;;;;;16.97;3.10;;;;;;;16.48;47.71;101406.31;4917449;29;20298;-64
2024/01/24 12:45:27;;;;;;;13.47;2.77;;;;;;;16.49;47.13;101418.72;4918877;29;20216;-65
2024/01/24 12:48:01;;;;;;;20.87;4.47;;;;;;;16.43;46.98;101419.38;4919418;29;20216;-65
2024/01/24 12:50:33;;;;;;;12.70;3.30;;;;;;;16.35;46.61;101422.03;4919915;29;20758;-65
2024/01/24 12:53:06;;;;;;;20.50;3.83;;;;;;;16.21;46.63;101433.34;4919086;29;20231;-69
2024/01/24 12:55:35;;;;;;;14.97;3.33;;;;;;;16.02;47.06;101435.25;4918409;29;20267;-65
2024/01/24 12:58:04;;;;;;;17.07;3.93;;;;;;;16.00;47.42;101437.28;4920616;29;20239;-63
2024/01/24 13:00:33;;;;;;;17.37;3.43;;;;;;;15.94;47.70;101439.72;4919418;29;20230;-64
2024/01/24 13:03:03;;;;;;;16.30;3.93;;;;;;;15.80;47.30;101443.84;4917094;29;20236;-65
2024/01/24 13:05:32;;;;;;;20.63;3.50;;;;;;;15.72;47.70;101435.78;4917672;29;20291;-64
2024/01/24 13:08:14;;;;;;;16.97;3.33;;;;;;;15.47;47.32;101436.59;4919400;29;21260;-65
2024/01/24 13:10:46;;;;;;;18.80;3.17;;;;;;;15.46;47.62;101441.09;4918346;29;20675;-64
2024/01/24 13:13:17;;;;;;;17.00;3.70;;;;;;;15.41;48.11;101449.56;4918248;29;20299;-64
2024/01/24 13:15:45;;;;;;;13.17;2.53;;;;;;;15.42;48.25;101445.06;4918547;29;20220;-65
2024/01/24 13:18:14;;;;;;;14.77;3.57;;;;;;;15.51;48.85;101451.31;4918834;29;20231;-65
2024/01/24 13:20:42;;;;;;;12.90;3.57;;;;;;;15.57;48.91;101456.06;4920599;29;20674;-65
2024/01/24 13:23:10;;;;;;;17.40;4.27;;;;;;;15.57;48.83;101453.41;4921768;29;20209;-65
2024/01/24 13:25:40;;;;;;;14.77;3.63;;;;;;;15.54;48.75;101454.56;4921694;29;20224;-65
2024/01/24 13:28:08;;;;;;;18.70;3.87;;;;;;;15.67;48.77;101454.97;4923200;29;20505;-66
2024/01/24 13:30:41;;;;;;;19.30;3.57;;;;;;;15.73;48.21;101450.84;4923036;29;20234;-63
2024/01/24 13:33:12;;;;;;;17.33;4.00;;;;;;;15.69;48.09;101449.47;4922552;29;20212;-70
2024/01/24 13:35:44;;;;;;;18.13;4.27;;;;;;;15.74;48.19;101452.50;4922431;29;20271;-64
2024/01/24 13:38:13;;;;;;;16.43;3.53;;;;;;;15.61;47.88;101447.56;4919473;29;20303;-65
2024/01/24 13:40:42;;;;;;;18.03;3.70;;;;;;;15.54;47.43;101448.38;4923593;29;20232;-64
2024/01/24 13:43:11;;;;;;;15.30;3.20;;;;;;;15.41;47.58;101462.94;4921181;29;20575;-63
2024/01/24 13:45:39;;;;;;;20.20;4.33;;;;;;;15.36;47.76;101477.75;4920388;29;20217;-65
2024/01/24 13:48:12;;;;;;;25.27;4.43;;;;;;;15.23;47.44;101467.47;4921602;29;20220;-70
2024/01/24 13:50:45;;;;;;;15.13;3.43;;;;;;;15.06;46.29;101455.78;4922250;29;20216;-64
2024/01/24 13:53:14;;;;;;;18.53;4.10;;;;;;;14.92;46.87;101476.88;4914071;29;20413;-65
2024/01/24 13:55:43;;;;;;;14.97;3.97;;;;;;;14.91;47.65;101467.16;4922945;29;20749;-65
2024/01/24 13:58:11;;;;;;;20.97;4.13;;;;;;;14.94;47.80;101469.56;4916486;29;20235;-65
2024/01/24 14:00:41;;;;;;;18.73;3.97;;;;;;;14.95;48.18;101471.22;4919618;29;21107;-65
2024/01/24 14:03:10;;;;;;;20.00;3.70;;;;;;;14.90;48.31;101476.16;4914893;29;20217;-63
2024/01/24 14:05:39;;;;;;;19.67;4.03;;;;;;;14.85;47.98;101489.16;4922718;29;20240;-64
2024/01/24 14:08:07;;;;;;;19.40;3.93;;;;;;;14.75;47.90;101475.03;4924770;29;20225;-61
2024/01/24 14:10:36;;;;;;;22.03;4.43;;;;;;;14.68;48.05;101478.31;4924496;29;20213;-62
2024/01/24 14:13:08;;;;;;;20.57;4.10;;;;;;;14.67;48.27;101500.66;4921618;29;20226;-63
2024/01/24 14:15:36;;;;;;;18.43;4.43;;;;;;;14.70;48.10;101499.47;4921576;29;20247;-62
2024/01/24 14:18:05;;;;;;;24.03;4.30;;;;;;;14.67;48.71;101503.31;4922043;29;20222;-61
2024/01/24 14:20:34;;;;;;;18.60;3.77;;;;;;;14.57;47.70;101499.84;4919833;29;20212;-62
2024/01/24 14:23:03;;;;;;;21.47;3.87;;;;;;;14.56;48.01;101500.84;4920157;29;20862;-63
2024/01/24 14:25:34;;;;;;;21.23;3.90;;;;;;;14.51;47.74;101505.75;4919316;29;20639;-66
2024/01/24 14:28:02;;;;;;;20.40;4.70;;;;;;;14.58;48.44;101503.38;4921488;29;20686;-64
2024/01/24 14:30:33;;;;;;;20.63;4.57;;;;;;;14.57;48.99;101517.69;4917966;29;20231;-65
2024/01/24 14:33:03;;;;;;;23.27;3.97;;;;;;;14.50;48.86;101520.13;4921632;29;20227;-65
2024/01/24 14:35:33;;;;;;;17.90;3.77;;;;;;;14.52;49.38;101520.78;4922289;29;20208;-64
2024/01/24 14:38:02;;;;;;;23.23;4.47;;;;;;;14.53;49.71;101530.50;4924041;29;20994;-65
2024/01/24 14:40:32;;;;;;;21.87;4.20;;;;;;;14.57;49.52;101539.06;4918462;29;20770;-64
2024/01/24 14:43:00;;;;;;;19.63;4.10;;;;;;;14.59;50.35;101551.28;4918621;29;20263;-64
2024/01/24 14:45:29;;;;;;;25.60;4.30;;;;;;;14.62;50.37;101550.94;4921234;29;20225;-64
2024/01/24 14:47:58;;;;;;;17.83;4.70;;;;;;;14.57;50.31;101565.75;4919029;29;20216;-61
2024/01/24 14:50:28;;;;;;;19.73;3.83;;;;;;;14.57;50.27;101549.72;4919655;29;20211;-62
2024/01/24 14:52:55;;;;;;;17.60;4.57;;;;;;;14.52;50.29;101558.16;4920644;29;20208;-62
2024/01/24 14:55:24;;;;;;;19.50;3.90;;;;;;;14.44;50.25;101559.88;4920212;29;20212;-64
2024/01/24 14:57:54;;;;;;;16.27;3.80;;;;;;;14.39;50.66;101560.34;4920895;29;20234;-63
2024/01/24 15:00:22;;;;;;;20.33;4.10;;;;;;;14.41;51.04;101571.72;4917320;29;20235;-61
2024/01/24 15:02:50;;;;;;;23.03;4.43;;;;;;;14.42;51.10;101573.41;4918649;29;20251;-62
2024/01/24 15:05:20;;;;;;;21.40;4.37;;;;;;;14.42;51.74;101573.41;4915406;29;20668;-64
2024/01/24 15:07:47;;;;;;;22.57;4.40;;;;;;;14.36;51.57;101589.09;4919517;29;20227;-62
2024/01/24 15:10:17;;;;;;;20.67;3.80;;;;;;;14.23;51.91;101578.75;4921434;29;20303;-63
2024/01/24 15:12:45;;;;;;;18.57;3.87;;;;;;;14.13;52.05;101581.47;4920959;29;20231;-62
2024/01/24 15:15:13;;;;;;;22.47;3.77;;;;;;;14.11;52.15;101569.25;4918055;29;20302;-62
2024/01/24 15:17:41;;;;;;;15.60;3.60;;;;;;;14.06;52.13;101579.50;4919724;29;20209;-61
2024/01/24 15:20:10;;;;;;;21.70;3.50;;;;;;;13.94;52.09;101571.66;4917309;29;20224;-61
2024/01/24 15:22:39;;;;;;;23.00;5.23;;;;;;;13.94;52.50;101586.81;4920558;29;20243;-63
2024/01/24 15:25:09;;;;;;;19.37;3.57;;;;;;;13.84;52.48;101589.50;4916953;29;20615;-64
2024/01/24 15:27:39;;;;;;;17.93;3.77;;;;;;;13.85;52.12;101593.00;4917525;29;20215;-60
2024/01/24 15:30:08;;;;;;;20.63;4.00;;;;;;;13.79;52.90;101589.09;4916402;29;20663;-62
2024/01/24 15:32:36;;;;;;;22.67;4.43;;;;;;;13.79;53.64;101586.44;4916360;29;20209;-60
2024/01/24 15:35:11;;;;;;;17.27;3.97;;;;;;;13.77;54.01;101592.88;4918622;29;20294;-63
2024/01/24 15:37:41;;;;;;;17.23;3.87;;;;;;;13.72;54.67;101603.94;4919277;29;20215;-65
2024/01/24 15:40:16;;;;;;;21.17;4.43;;;;;;;13.68;54.22;101599.91;4917602;29;20243;-66
2024/01/24 15:42:45;;;;;;;18.83;3.80;;;;;;;13.61;54.41;101588.13;4918865;29;20214;-63
2024/01/24 15:45:14;;;;;;;25.70;3.90;;;;;;;13.48;54.27;101595.53;4910891;29;20217;-64
2024/01/24 15:47:42;;;;;;;26.53;4.47;;;;;;;13.47;54.40;101607.19;4918782;29;20299;-65
2024/01/24 15:50:12;;;;;;;21.80;4.47;;;;;;;13.47;54.54;101609.84;4920689;28;20204;-65
2024/01/24 15:52:40;;;;;;;18.03;3.93;;;;;;;13.46;54.40;101605.50;4922312;29;20543;-64
2024/01/24 15:55:11;;;;;;;20.57;4.40;;;;;;;13.43;54.43;101622.63;4923421;29;20242;-65
2024/01/24 15:57:39;;;;;;;18.30;3.77;;;;;;;13.38;54.69;101632.84;4923544;29;20293;-65
2024/01/24 16:00:10;;;;;;;21.20;3.83;;;;;;;13.30;54.50;101637.16;4923186;29;20355;-64
2024/01/24 16:02:38;;;;;;;15.53;3.30;;;;;;;13.28;54.63;101633.81;4922023;29;20314;-66
2024/01/24 16:05:20;;;;;;;17.90;4.30;;;;;;;13.25;54.85;101639.41;4918930;29;20296;-65
2024/01/24 16:07:50;;;;;;;20.23;4.30;;;;;;;13.18;54.96;101644.44;4920702;29;20704;-63
2024/01/24 16:10:20;;;;;;;18.00;4.37;;;;;;;13.10;54.52;101652.25;4920270;29;20219;-64
2024/01/24 16:12:48;;;;;;;23.43;4.00;;;;;;;13.08;55.00;101644.38;4918756;29;20282;-65
2024/01/24 16:15:17;;;;;;;17.33;4.00;;;;;;;13.02;54.98;101650.22;4919028;29;20574;-64
2024/01/24 16:17:45;;;;;;;20.17;4.10;;;;;;;13.04;55.48;101652.78;4920287;29;20584;-65
2024/01/24 16:20:14;;;;;;;19.17;3.67;;;;;;;13.04;55.59;101664.25;4916951;29;20238;-65
2024/01/24 16:22:42;;;;;;;22.77;3.93;;;;;;;13.01;55.74;101661.06;4918825;29;20655;-64
2024/01/24 16:25:24;;;;;;;19.80;3.70;;;;;;;13.01;55.57;101651.25;4917642;29;20271;-65
2024/01/24 16:27:53;;;;;;;26.13;4.47;;;;;;;13.00;55.86;101665.53;4919874;29;20667;-65
2024/01/24 16:30:24;;;;;;;33.93;10.37;;;;;;;13.01;56.62;101669.88;4919073;29;20581;-64
2024/01/24 16:32:53;;;;;;;19.43;5.00;;;;;;;13.00;56.16;101681.50;4918402;29;20227;-64
2024/01/24 16:35:22;;;;;;;28.27;4.73;;;;;;;12.95;56.05;101672.22;4916699;29;20223;-64
2024/01/24 16:37:53;;;;;;;23.27;3.93;;;;;;;12.97;56.05;101684.44;4916720;29;20220;-65
2024/01/24 16:40:24;;;;;;;15.70;3.67;;;;;;;12.91;56.03;101684.97;4919512;29;20639;-64
2024/01/24 16:42:52;;;;;;;22.93;4.23;;;;;;;12.92;56.28;101685.81;4920190;29;20210;-65
2024/01/24 16:45:21;;;;;;;15.83;3.90;;;;;;;12.87;55.98;101683.53;4918495;29;20220;-65
2024/01/24 16:47:50;;;;;;;21.03;3.97;;;;;;;12.84;55.85;101698.97;4919160;29;20246;-64
2024/01/24 16:50:22;;;;;;;28.63;3.50;;;;;;;12.77;55.81;101706.59;4915738;29;20215;-65
2024/01/24 16:52:51;;;;;;;23.10;4.23;;;;;;;12.75;56.05;101703.25;4919444;29;20241;-65
2024/01/24 16:55:20;;;;;;;23.93;3.97;;;;;;;12.73;56.02;101707.84;4921639;29;20233;-63
2024/01/24 16:57:51;;;;;;;23.10;3.37;;;;;;;12.72;56.62;101708.84;4922222;29;20617;-65
2024/01/24 17:00:22;;;;;;;22.97;4.00;;;;;;;12.68;56.62;101726.03;4925316;29;20233;-66
2024/01/24 17:02:52;;;;;;;18.30;3.57;;;;;;;12.67;56.58;101719.00;4921848;29;20292;-64
2024/01/24 17:05:26;;;;;;;20.03;4.37;;;;;;;12.61;56.35;101727.53;4919320;29;20243;-64
2024/01/24 17:07:54;;;;;;;19.20;4.17;;;;;;;12.59;56.58;101734.78;4922433;29;20315;-64
2024/01/24 17:10:22;;;;;;;25.93;5.10;;;;;;;12.54;56.70;101735.19;4923778;29;20220;-65
2024/01/24 17:12:52;;;;;;;19.80;4.10;;;;;;;12.49;56.62;101736.56;4921998;29;20307;-65
2024/01/24 17:15:21;;;;;;;20.47;4.37;;;;;;;12.49;56.76;101731.25;4921825;29;20241;-64
2024/01/24 17:17:53;;;;;;;20.73;4.40;;;;;;;12.47;57.37;101727.88;4903146;29;20224;-64
2024/01/24 17:20:22;;;;;;;22.00;4.60;;;;;;;12.43;57.17;101722.78;4923136;29;20231;-64
2024/01/24 17:22:56;;;;;;;16.83;3.60;;;;;;;12.43;57.20;101728.13;4920752;29;20683;-64
2024/01/24 17:25:30;;;;;;;20.93;3.90;;;;;;;12.40;57.03;101720.38;4924262;29;20212;-64
2024/01/24 17:28:01;;;;;;;20.60;3.73;;;;;;;12.39;57.03;101734.69;4920397;29;20672;-63
2024/01/24 17:30:29;;;;;;;20.50;4.57;;;;;;;12.39;57.04;101731.19;4920822;29;20208;-63
2024/01/24 17:33:00;;;;;;;16.83;4.23;;;;;;;12.37;56.92;101741.94;4922221;29;20314;-64
2024/01/24 17:35:30;;;;;;;19.77;4.63;;;;;;;12.37;56.86;101743.75;4920701;29;20645;-64
2024/01/24 17:38:01;;;;;;;22.87;4.93;;;;;;;12.36;57.17;101740.25;4919940;29;20218;-64
2024/01/24 17:40:29;;;;;;;25.63;5.10;;;;;;;12.27;57.75;101734.84;4921514;29;20236;-64
2024/01/24 17:43:00;;;;;;;17.77;4.00;;;;;;;12.07;57.91;101728.53;4921940;29;20215;-64
2024/01/24 17:45:28;;;;;;;23.77;5.40;;;;;;;12.00;58.51;101756.59;4919279;29;20216;-65
2024/01/24 17:48:02;;;;;;;24.57;4.90;;;;;;;11.96;58.35;101765.81;4920710;29;20739;-65
2024/01/24 17:50:30;;;;;;;20.93;4.57;;;;;;;11.85;58.41;101772.00;4921551;29;20212;-65
2024/01/24 17:52:59;;;;;;;24.07;4.83;;;;;;;11.88;58.47;101770.88;4920602;29;20208;-65
2024/01/24 17:55:28;;;;;;;26.17;4.93;;;;;;;11.88;58.71;101785.03;4920744;29;20205;-65
2024/01/24 17:57:58;;;;;;;23.33;4.80;;;;;;;11.81;58.63;101777.69;4921230;29;20566;-65
2024/01/24 18:00:28;;;;;;;20.67;4.93;;;;;;;11.86;58.82;101786.13;4920698;29;20801;-64
2024/01/24 18:03:00;;;;;;;27.40;6.23;;;;;;;11.89;59.31;101785.88;4924744;29;20634;-64
2024/01/24 18:05:28;;;;;;;22.63;5.13;;;;;;;11.94;59.55;101789.00;4920409;29;20213;-65
2024/01/24 18:07:57;;;;;;;22.67;4.50;;;;;;;11.97;59.38;101800.22;4919394;29;20211;-64
2024/01/24 18:10:25;;;;;;;24.90;6.23;;;;;;;11.98;58.88;101801.06;4921000;29;20693;-64
2024/01/24 18:12:56;;;;;;;24.50;5.47;;;;;;;11.99;58.61;101789.47;4922918;29;20271;-64
2024/01/24 18:15:28;;;;;;;25.70;5.50;;;;;;;11.98;58.12;101785.13;4920727;29;20215;-64
2024/01/24 18:17:59;;;;;;;24.37;4.23;;;;;;;11.94;57.55;101794.34;4920683;29;21296;-64
2024/01/24 18:20:29;;;;;;;24.27;5.37;;;;;;;11.97;57.29;101802.88;4921530;29;20355;-64
2024/01/24 18:22:58;;;;;;;22.10;4.87;;;;;;;12.01;57.12;101811.47;4922406;29;20208;-68
2024/01/24 18:25:27;;;;;;;25.53;5.60;;;;;;;12.02;57.51;101803.38;4920646;29;20212;-64
2024/01/24 18:27:56;;;;;;;26.63;5.40;;;;;;;12.04;57.95;101804.09;4922617;29;20251;-63
2024/01/24 18:30:24;;;;;;;20.30;4.37;;;;;;;12.03;57.50;101815.69;4920700;29;20251;-64